sensor_id;sensor_type;location;lat;lon;timestamp;P1;durP1;ratioP1;P2;durP2;ratioP2
20110;SDS011;10216;42.658;23.248;2023-02-28T00:00:44;48.60;;;27.77;;
20110;SDS011;10216;42.658;23.248;2023-02-28T00:03:10;48.10;;;27.67;;
20110;SDS011;10216;42.658;23.248;2023-02-28T00:05:35;42.20;;;26.07;;
20110;SDS011;10216;42.658;23.248;2023-02-28T00:08:00;61.83;;;27.43;;
20110;SDS011;10216;42.658;23.248;2023-02-28T00:10:27;53.77;;;27.97;;
20110;SDS011;10216;42.658;23.248;2023-02-28T00:12:53;45.57;;;29.60;;
20110;SDS011;10216;42.658;23.248;2023-02-28T00:15:19;49.70;;;28.73;;
20110;SDS011;10216;42.658;23.248;2023-02-28T00:17:44;47.10;;;27.10;;
20110;SDS011;10216;42.658;23.248;2023-02-28T00:20:10;59.83;;;28.53;;
20110;SDS011;10216;42.658;23.248;2023-02-28T00:22:44;58.47;;;29.23;;
20110;SDS011;10216;42.658;23.248;2023-02-28T00:25:10;48.10;;;26.37;;
20110;SDS011;10216;42.658;23.248;2023-02-28T00:27:36;51.40;;;27.53;;
20110;SDS011;10216;42.658;23.248;2023-02-28T00:30:02;38.43;;;22.63;;
20110;SDS011;10216;42.658;23.248;2023-02-28T00:32:30;40.13;;;23.23;;
20110;SDS011;10216;42.658;23.248;2023-02-28T00:34:55;36.83;;;22.30;;
20110;SDS011;10216;42.658;23.248;2023-02-28T00:37:20;31.90;;;20.83;;
20110;SDS011;10216;42.658;23.248;2023-02-28T00:39:46;28.57;;;19.30;;
20110;SDS011;10216;42.658;23.248;2023-02-28T00:42:11;30.80;;;18.30;;
20110;SDS011;10216;42.658;23.248;2023-02-28T00:44:36;39.97;;;24.83;;
20110;SDS011;10216;42.658;23.248;2023-02-28T00:47:01;39.63;;;23.83;;
20110;SDS011;10216;42.658;23.248;2023-02-28T00:49:27;39.23;;;24.87;;
20110;SDS011;10216;42.658;23.248;2023-02-28T00:51:52;45.73;;;24.00;;
20110;SDS011;10216;42.658;23.248;2023-02-28T00:54:18;37.60;;;25.07;;
20110;SDS011;10216;42.658;23.248;2023-02-28T00:56:43;41.50;;;23.33;;
20110;SDS011;10216;42.658;23.248;2023-02-28T00:59:10;33.93;;;22.83;;
20110;SDS011;10216;42.658;23.248;2023-02-28T01:01:36;32.33;;;20.77;;
20110;SDS011;10216;42.658;23.248;2023-02-28T01:04:01;32.77;;;21.00;;
20110;SDS011;10216;42.658;23.248;2023-02-28T01:06:26;35.43;;;21.30;;
20110;SDS011;10216;42.658;23.248;2023-02-28T01:08:51;35.30;;;22.53;;
20110;SDS011;10216;42.658;23.248;2023-02-28T01:11:17;33.20;;;21.30;;
20110;SDS011;10216;42.658;23.248;2023-02-28T01:13:43;53.60;;;22.43;;
20110;SDS011;10216;42.658;23.248;2023-02-28T01:16:08;41.57;;;21.80;;
20110;SDS011;10216;42.658;23.248;2023-02-28T01:18:33;47.90;;;23.43;;
20110;SDS011;10216;42.658;23.248;2023-02-28T01:21:02;47.30;;;24.93;;
20110;SDS011;10216;42.658;23.248;2023-02-28T01:23:28;48.00;;;26.50;;
20110;SDS011;10216;42.658;23.248;2023-02-28T01:25:53;64.77;;;27.63;;
20110;SDS011;10216;42.658;23.248;2023-02-28T01:28:18;102.43;;;31.93;;
20110;SDS011;10216;42.658;23.248;2023-02-28T01:30:47;337.93;;;36.17;;
20110;SDS011;10216;42.658;23.248;2023-02-28T01:33:12;805.27;;;52.67;;
20110;SDS011;10216;42.658;23.248;2023-02-28T01:35:37;786.67;;;52.03;;
20110;SDS011;10216;42.658;23.248;2023-02-28T01:38:02;666.80;;;52.30;;
20110;SDS011;10216;42.658;23.248;2023-02-28T01:40:30;802.33;;;50.57;;
20110;SDS011;10216;42.658;23.248;2023-02-28T01:42:55;842.53;;;54.57;;
20110;SDS011;10216;42.658;23.248;2023-02-28T01:45:28;717.43;;;49.87;;
20110;SDS011;10216;42.658;23.248;2023-02-28T01:47:55;704.87;;;48.13;;
20110;SDS011;10216;42.658;23.248;2023-02-28T01:50:22;722.70;;;49.53;;
20110;SDS011;10216;42.658;23.248;2023-02-28T01:52:48;636.27;;;48.47;;
20110;SDS011;10216;42.658;23.248;2023-02-28T01:55:15;301.13;;;41.10;;
20110;SDS011;10216;42.658;23.248;2023-02-28T01:57:43;664.50;;;48.23;;
20110;SDS011;10216;42.658;23.248;2023-02-28T02:00:13;754.50;;;50.23;;
20110;SDS011;10216;42.658;23.248;2023-02-28T02:02:43;575.07;;;46.23;;
20110;SDS011;10216;42.658;23.248;2023-02-28T02:05:11;643.30;;;45.83;;
20110;SDS011;10216;42.658;23.248;2023-02-28T02:07:40;630.37;;;45.07;;
20110;SDS011;10216;42.658;23.248;2023-02-28T02:10:10;550.97;;;40.17;;
20110;SDS011;10216;42.658;23.248;2023-02-28T02:15:23;562.73;;;38.63;;
20110;SDS011;10216;42.658;23.248;2023-02-28T02:17:51;486.80;;;37.30;;
20110;SDS011;10216;42.658;23.248;2023-02-28T02:35:34;444.60;;;38.73;;
20110;SDS011;10216;42.658;23.248;2023-02-28T02:38:09;496.10;;;40.33;;
20110;SDS011;10216;42.658;23.248;2023-02-28T02:40:38;351.33;;;36.30;;
20110;SDS011;10216;42.658;23.248;2023-02-28T02:43:08;486.50;;;38.80;;
20110;SDS011;10216;42.658;23.248;2023-02-28T02:45:48;455.67;;;38.20;;
20110;SDS011;10216;42.658;23.248;2023-02-28T02:48:19;157.30;;;29.33;;
20110;SDS011;10216;42.658;23.248;2023-02-28T02:50:46;386.77;;;38.20;;
20110;SDS011;10216;42.658;23.248;2023-02-28T02:53:14;371.93;;;35.97;;
20110;SDS011;10216;42.658;23.248;2023-02-28T02:55:41;445.77;;;40.17;;
20110;SDS011;10216;42.658;23.248;2023-02-28T02:58:10;197.57;;;33.40;;
20110;SDS011;10216;42.658;23.248;2023-02-28T03:00:40;154.43;;;31.00;;
20110;SDS011;10216;42.658;23.248;2023-02-28T03:03:07;428.13;;;36.93;;
20110;SDS011;10216;42.658;23.248;2023-02-28T03:05:46;461.07;;;37.90;;
20110;SDS011;10216;42.658;23.248;2023-02-28T03:08:12;91.47;;;31.67;;
20110;SDS011;10216;42.658;23.248;2023-02-28T03:10:39;444.33;;;38.50;;
20110;SDS011;10216;42.658;23.248;2023-02-28T03:16:01;267.30;;;33.90;;
20110;SDS011;10216;42.658;23.248;2023-02-28T03:21:06;339.17;;;35.03;;
20110;SDS011;10216;42.658;23.248;2023-02-28T03:26:43;191.40;;;31.50;;
20110;SDS011;10216;42.658;23.248;2023-02-28T03:29:18;195.20;;;31.47;;
20110;SDS011;10216;42.658;23.248;2023-02-28T03:32:29;225.50;;;34.40;;
20110;SDS011;10216;42.658;23.248;2023-02-28T03:34:39;177.40;;;31.40;;
20110;SDS011;10216;42.658;23.248;2023-02-28T03:37:11;187.50;;;33.10;;
20110;SDS011;10216;42.658;23.248;2023-02-28T03:39:38;220.00;;;37.57;;
20110;SDS011;10216;42.658;23.248;2023-02-28T03:42:09;177.97;;;36.97;;
20110;SDS011;10216;42.658;23.248;2023-02-28T03:44:38;222.90;;;38.30;;
20110;SDS011;10216;42.658;23.248;2023-02-28T03:50:03;237.03;;;35.90;;
20110;SDS011;10216;42.658;23.248;2023-02-28T03:52:32;162.00;;;31.23;;
20110;SDS011;10216;42.658;23.248;2023-02-28T03:54:59;189.70;;;33.30;;
20110;SDS011;10216;42.658;23.248;2023-02-28T03:57:37;210.17;;;34.63;;
20110;SDS011;10216;42.658;23.248;2023-02-28T04:00:21;235.93;;;40.63;;
20110;SDS011;10216;42.658;23.248;2023-02-28T04:02:50;187.03;;;35.03;;
20110;SDS011;10216;42.658;23.248;2023-02-28T04:05:18;366.03;;;38.63;;
20110;SDS011;10216;42.658;23.248;2023-02-28T04:07:43;322.33;;;44.67;;
20110;SDS011;10216;42.658;23.248;2023-02-28T04:10:08;422.03;;;45.70;;
20110;SDS011;10216;42.658;23.248;2023-02-28T04:12:34;261.03;;;36.80;;
20110;SDS011;10216;42.658;23.248;2023-02-28T04:14:59;201.07;;;32.43;;
20110;SDS011;10216;42.658;23.248;2023-02-28T04:17:24;105.20;;;33.13;;
20110;SDS011;10216;42.658;23.248;2023-02-28T04:19:49;179.60;;;37.23;;
20110;SDS011;10216;42.658;23.248;2023-02-28T04:22:15;166.83;;;35.47;;
20110;SDS011;10216;42.658;23.248;2023-02-28T04:24:42;211.57;;;37.13;;
20110;SDS011;10216;42.658;23.248;2023-02-28T04:27:08;171.87;;;34.97;;
20110;SDS011;10216;42.658;23.248;2023-02-28T04:29:33;118.30;;;32.33;;
20110;SDS011;10216;42.658;23.248;2023-02-28T04:31:59;120.60;;;31.97;;
20110;SDS011;10216;42.658;23.248;2023-02-28T04:34:29;277.20;;;40.03;;
20110;SDS011;10216;42.658;23.248;2023-02-28T04:36:56;427.70;;;41.63;;
20110;SDS011;10216;42.658;23.248;2023-02-28T04:39:22;308.77;;;40.57;;
20110;SDS011;10216;42.658;23.248;2023-02-28T04:41:48;509.93;;;47.73;;
20110;SDS011;10216;42.658;23.248;2023-02-28T04:44:14;631.70;;;51.97;;
20110;SDS011;10216;42.658;23.248;2023-02-28T04:46:39;872.53;;;63.90;;
20110;SDS011;10216;42.658;23.248;2023-02-28T04:49:04;835.37;;;59.33;;
20110;SDS011;10216;42.658;23.248;2023-02-28T04:51:30;746.47;;;55.97;;
20110;SDS011;10216;42.658;23.248;2023-02-28T04:53:55;792.57;;;55.33;;
20110;SDS011;10216;42.658;23.248;2023-02-28T04:56:21;236.90;;;38.03;;
20110;SDS011;10216;42.658;23.248;2023-02-28T04:58:46;185.67;;;35.60;;
20110;SDS011;10216;42.658;23.248;2023-02-28T05:01:16;229.77;;;38.53;;
20110;SDS011;10216;42.658;23.248;2023-02-28T05:03:42;889.53;;;53.23;;
20110;SDS011;10216;42.658;23.248;2023-02-28T05:06:09;750.77;;;55.43;;
20110;SDS011;10216;42.658;23.248;2023-02-28T05:08:35;986.13;;;68.10;;
20110;SDS011;10216;42.658;23.248;2023-02-28T05:11:00;690.27;;;56.70;;
20110;SDS011;10216;42.658;23.248;2023-02-28T05:13:26;640.23;;;52.47;;
20110;SDS011;10216;42.658;23.248;2023-02-28T05:15:51;928.03;;;59.90;;
20110;SDS011;10216;42.658;23.248;2023-02-28T05:18:16;857.83;;;56.80;;
20110;SDS011;10216;42.658;23.248;2023-02-28T05:20:41;735.47;;;51.10;;
20110;SDS011;10216;42.658;23.248;2023-02-28T05:23:08;508.43;;;46.07;;
20110;SDS011;10216;42.658;23.248;2023-02-28T05:25:33;767.23;;;56.73;;
20110;SDS011;10216;42.658;23.248;2023-02-28T05:27:58;618.07;;;51.57;;
20110;SDS011;10216;42.658;23.248;2023-02-28T05:30:24;416.33;;;42.60;;
20110;SDS011;10216;42.658;23.248;2023-02-28T05:32:52;180.37;;;37.67;;
20110;SDS011;10216;42.658;23.248;2023-02-28T05:35:17;145.97;;;36.97;;
20110;SDS011;10216;42.658;23.248;2023-02-28T05:37:42;123.93;;;39.97;;
20110;SDS011;10216;42.658;23.248;2023-02-28T05:40:10;100.77;;;30.83;;
20110;SDS011;10216;42.658;23.248;2023-02-28T05:42:35;73.97;;;30.40;;
20110;SDS011;10216;42.658;23.248;2023-02-28T05:45:01;96.80;;;31.07;;
20110;SDS011;10216;42.658;23.248;2023-02-28T05:47:26;68.80;;;30.60;;
20110;SDS011;10216;42.658;23.248;2023-02-28T05:49:51;94.33;;;30.13;;
20110;SDS011;10216;42.658;23.248;2023-02-28T05:52:16;78.43;;;27.60;;
20110;SDS011;10216;42.658;23.248;2023-02-28T05:54:42;66.33;;;27.27;;
20110;SDS011;10216;42.658;23.248;2023-02-28T05:57:07;62.10;;;28.90;;
20110;SDS011;10216;42.658;23.248;2023-02-28T05:59:32;64.90;;;28.77;;
20110;SDS011;10216;42.658;23.248;2023-02-28T06:01:58;59.20;;;27.87;;
20110;SDS011;10216;42.658;23.248;2023-02-28T06:04:23;64.00;;;27.57;;
20110;SDS011;10216;42.658;23.248;2023-02-28T06:06:48;56.57;;;27.30;;
20110;SDS011;10216;42.658;23.248;2023-02-28T06:09:14;63.77;;;29.27;;
20110;SDS011;10216;42.658;23.248;2023-02-28T06:11:40;71.37;;;32.97;;
20110;SDS011;10216;42.658;23.248;2023-02-28T06:14:05;77.10;;;37.93;;
20110;SDS011;10216;42.658;23.248;2023-02-28T06:16:32;78.20;;;34.53;;
20110;SDS011;10216;42.658;23.248;2023-02-28T06:18:58;69.70;;;31.60;;
20110;SDS011;10216;42.658;23.248;2023-02-28T06:21:24;57.33;;;27.77;;
20110;SDS011;10216;42.658;23.248;2023-02-28T06:23:51;58.37;;;27.60;;
20110;SDS011;10216;42.658;23.248;2023-02-28T06:26:17;65.83;;;26.93;;
20110;SDS011;10216;42.658;23.248;2023-02-28T06:28:42;59.70;;;28.90;;
20110;SDS011;10216;42.658;23.248;2023-02-28T06:31:11;57.47;;;28.13;;
20110;SDS011;10216;42.658;23.248;2023-02-28T06:33:37;52.17;;;27.50;;
20110;SDS011;10216;42.658;23.248;2023-02-28T06:36:03;59.70;;;30.03;;
20110;SDS011;10216;42.658;23.248;2023-02-28T06:38:28;56.50;;;30.60;;
20110;SDS011;10216;42.658;23.248;2023-02-28T06:40:54;56.50;;;31.20;;
20110;SDS011;10216;42.658;23.248;2023-02-28T06:43:20;59.30;;;28.70;;
20110;SDS011;10216;42.658;23.248;2023-02-28T06:45:45;127.33;;;60.17;;
20110;SDS011;10216;42.658;23.248;2023-02-28T06:48:10;132.57;;;59.63;;
20110;SDS011;10216;42.658;23.248;2023-02-28T06:50:36;78.20;;;38.53;;
20110;SDS011;10216;42.658;23.248;2023-02-28T06:53:02;49.57;;;28.13;;
20110;SDS011;10216;42.658;23.248;2023-02-28T06:55:27;51.33;;;28.73;;
20110;SDS011;10216;42.658;23.248;2023-02-28T06:57:52;49.47;;;28.13;;
20110;SDS011;10216;42.658;23.248;2023-02-28T07:00:19;51.57;;;30.70;;
20110;SDS011;10216;42.658;23.248;2023-02-28T07:02:45;50.73;;;28.87;;
20110;SDS011;10216;42.658;23.248;2023-02-28T07:05:10;55.67;;;29.87;;
20110;SDS011;10216;42.658;23.248;2023-02-28T07:07:38;49.77;;;30.17;;
20110;SDS011;10216;42.658;23.248;2023-02-28T07:10:05;73.73;;;40.27;;
20110;SDS011;10216;42.658;23.248;2023-02-28T07:12:31;55.00;;;33.73;;
20110;SDS011;10216;42.658;23.248;2023-02-28T07:14:56;77.87;;;37.43;;
20110;SDS011;10216;42.658;23.248;2023-02-28T07:17:21;92.80;;;40.13;;
20110;SDS011;10216;42.658;23.248;2023-02-28T07:19:47;96.17;;;41.70;;
20110;SDS011;10216;42.658;23.248;2023-02-28T07:22:12;98.63;;;41.07;;
20110;SDS011;10216;42.658;23.248;2023-02-28T07:24:37;104.37;;;42.63;;
20110;SDS011;10216;42.658;23.248;2023-02-28T07:27:03;130.37;;;44.60;;
20110;SDS011;10216;42.658;23.248;2023-02-28T07:29:28;140.50;;;48.80;;
20110;SDS011;10216;42.658;23.248;2023-02-28T07:31:53;127.20;;;46.87;;
20110;SDS011;10216;42.658;23.248;2023-02-28T07:34:19;214.50;;;46.43;;
20110;SDS011;10216;42.658;23.248;2023-02-28T07:36:45;165.50;;;46.67;;
20110;SDS011;10216;42.658;23.248;2023-02-28T07:39:10;192.73;;;54.67;;
20110;SDS011;10216;42.658;23.248;2023-02-28T07:41:35;193.63;;;54.83;;
20110;SDS011;10216;42.658;23.248;2023-02-28T07:44:04;179.30;;;46.37;;
20110;SDS011;10216;42.658;23.248;2023-02-28T07:46:29;200.20;;;48.40;;
20110;SDS011;10216;42.658;23.248;2023-02-28T07:49:00;235.10;;;51.83;;
20110;SDS011;10216;42.658;23.248;2023-02-28T07:51:25;189.40;;;52.27;;
20110;SDS011;10216;42.658;23.248;2023-02-28T07:53:50;225.10;;;49.00;;
20110;SDS011;10216;42.658;23.248;2023-02-28T07:56:16;207.10;;;49.20;;
20110;SDS011;10216;42.658;23.248;2023-02-28T07:58:41;147.20;;;49.50;;
20110;SDS011;10216;42.658;23.248;2023-02-28T08:01:07;206.07;;;51.27;;
20110;SDS011;10216;42.658;23.248;2023-02-28T08:03:32;205.27;;;52.03;;
20110;SDS011;10216;42.658;23.248;2023-02-28T08:05:57;229.83;;;53.83;;
20110;SDS011;10216;42.658;23.248;2023-02-28T08:08:23;197.40;;;51.97;;
20110;SDS011;10216;42.658;23.248;2023-02-28T08:10:48;190.70;;;51.13;;
20110;SDS011;10216;42.658;23.248;2023-02-28T08:13:13;143.73;;;50.37;;
20110;SDS011;10216;42.658;23.248;2023-02-28T08:15:40;150.17;;;55.63;;
20110;SDS011;10216;42.658;23.248;2023-02-28T08:18:05;152.13;;;53.27;;
20110;SDS011;10216;42.658;23.248;2023-02-28T08:20:30;131.73;;;51.50;;
20110;SDS011;10216;42.658;23.248;2023-02-28T08:22:56;103.33;;;46.87;;
20110;SDS011;10216;42.658;23.248;2023-02-28T08:25:21;149.27;;;56.73;;
20110;SDS011;10216;42.658;23.248;2023-02-28T08:27:46;152.43;;;51.50;;
20110;SDS011;10216;42.658;23.248;2023-02-28T08:30:12;136.80;;;53.87;;
20110;SDS011;10216;42.658;23.248;2023-02-28T08:32:38;129.20;;;48.67;;
20110;SDS011;10216;42.658;23.248;2023-02-28T08:35:04;122.87;;;48.80;;
20110;SDS011;10216;42.658;23.248;2023-02-28T08:37:29;105.63;;;49.17;;
20110;SDS011;10216;42.658;23.248;2023-02-28T08:39:55;109.60;;;47.43;;
20110;SDS011;10216;42.658;23.248;2023-02-28T08:42:20;110.43;;;46.83;;
20110;SDS011;10216;42.658;23.248;2023-02-28T08:44:45;122.27;;;49.60;;
20110;SDS011;10216;42.658;23.248;2023-02-28T08:47:10;108.00;;;48.83;;
20110;SDS011;10216;42.658;23.248;2023-02-28T08:49:36;122.80;;;49.47;;
20110;SDS011;10216;42.658;23.248;2023-02-28T08:52:02;117.20;;;52.40;;
20110;SDS011;10216;42.658;23.248;2023-02-28T08:54:27;113.63;;;54.00;;
20110;SDS011;10216;42.658;23.248;2023-02-28T08:56:55;106.30;;;49.33;;
20110;SDS011;10216;42.658;23.248;2023-02-28T08:59:20;104.27;;;47.83;;
20110;SDS011;10216;42.658;23.248;2023-02-28T09:01:46;97.93;;;50.50;;
20110;SDS011;10216;42.658;23.248;2023-02-28T09:04:11;101.60;;;47.50;;
20110;SDS011;10216;42.658;23.248;2023-02-28T09:06:37;91.07;;;45.57;;
20110;SDS011;10216;42.658;23.248;2023-02-28T09:09:02;89.70;;;46.03;;
20110;SDS011;10216;42.658;23.248;2023-02-28T09:11:29;87.30;;;44.97;;
20110;SDS011;10216;42.658;23.248;2023-02-28T09:13:54;87.03;;;44.60;;
20110;SDS011;10216;42.658;23.248;2023-02-28T09:16:20;87.63;;;45.40;;
20110;SDS011;10216;42.658;23.248;2023-02-28T09:18:46;85.93;;;44.50;;
20110;SDS011;10216;42.658;23.248;2023-02-28T09:21:13;89.83;;;47.53;;
20110;SDS011;10216;42.658;23.248;2023-02-28T09:23:39;89.10;;;46.47;;
20110;SDS011;10216;42.658;23.248;2023-02-28T09:26:05;103.17;;;46.50;;
20110;SDS011;10216;42.658;23.248;2023-02-28T09:28:30;92.13;;;46.83;;
20110;SDS011;10216;42.658;23.248;2023-02-28T09:30:55;95.83;;;48.17;;
20110;SDS011;10216;42.658;23.248;2023-02-28T09:33:22;103.27;;;48.53;;
20110;SDS011;10216;42.658;23.248;2023-02-28T09:35:48;94.73;;;50.57;;
20110;SDS011;10216;42.658;23.248;2023-02-28T09:38:14;93.00;;;50.40;;
20110;SDS011;10216;42.658;23.248;2023-02-28T09:40:45;90.47;;;49.70;;
20110;SDS011;10216;42.658;23.248;2023-02-28T09:43:12;92.10;;;51.77;;
20110;SDS011;10216;42.658;23.248;2023-02-28T09:45:39;92.87;;;50.23;;
20110;SDS011;10216;42.658;23.248;2023-02-28T09:48:10;88.83;;;49.53;;
20110;SDS011;10216;42.658;23.248;2023-02-28T09:53:04;93.37;;;53.27;;
20110;SDS011;10216;42.658;23.248;2023-02-28T09:55:42;94.10;;;49.50;;
20110;SDS011;10216;42.658;23.248;2023-02-28T09:58:20;94.47;;;49.63;;
20110;SDS011;10216;42.658;23.248;2023-02-28T10:00:52;88.33;;;46.47;;
20110;SDS011;10216;42.658;23.248;2023-02-28T10:03:36;94.37;;;47.53;;
20110;SDS011;10216;42.658;23.248;2023-02-28T10:06:09;83.00;;;45.77;;
20110;SDS011;10216;42.658;23.248;2023-02-28T10:11:16;78.03;;;45.50;;
20110;SDS011;10216;42.658;23.248;2023-02-28T10:13:52;77.20;;;45.07;;
20110;SDS011;10216;42.658;23.248;2023-02-28T10:16:25;80.57;;;44.80;;
20110;SDS011;10216;42.658;23.248;2023-02-28T10:18:54;74.73;;;44.03;;
20110;SDS011;10216;42.658;23.248;2023-02-28T10:23:45;76.90;;;45.80;;
20110;SDS011;10216;42.658;23.248;2023-02-28T10:26:13;72.87;;;44.30;;
20110;SDS011;10216;42.658;23.248;2023-02-28T10:28:40;73.90;;;44.00;;
20110;SDS011;10216;42.658;23.248;2023-02-28T10:31:08;73.17;;;43.80;;
20110;SDS011;10216;42.658;23.248;2023-02-28T10:33:36;74.07;;;43.63;;
20110;SDS011;10216;42.658;23.248;2023-02-28T10:36:01;68.17;;;45.00;;
20110;SDS011;10216;42.658;23.248;2023-02-28T10:38:35;66.67;;;41.90;;
20110;SDS011;10216;42.658;23.248;2023-02-28T10:41:08;66.00;;;40.33;;
20110;SDS011;10216;42.658;23.248;2023-02-28T10:43:34;65.60;;;41.30;;
20110;SDS011;10216;42.658;23.248;2023-02-28T10:48:36;60.47;;;40.57;;
20110;SDS011;10216;42.658;23.248;2023-02-28T10:51:02;57.23;;;37.07;;
20110;SDS011;10216;42.658;23.248;2023-02-28T10:53:48;54.13;;;36.97;;
20110;SDS011;10216;42.658;23.248;2023-02-28T10:56:15;46.27;;;29.60;;
20110;SDS011;10216;42.658;23.248;2023-02-28T10:58:52;54.50;;;32.73;;
20110;SDS011;10216;42.658;23.248;2023-02-28T11:03:50;50.63;;;24.73;;
20110;SDS011;10216;42.658;23.248;2023-02-28T11:06:16;34.63;;;19.77;;
20110;SDS011;10216;42.658;23.248;2023-02-28T11:08:55;29.60;;;17.77;;
20110;SDS011;10216;42.658;23.248;2023-02-28T11:11:21;28.27;;;16.43;;
20110;SDS011;10216;42.658;23.248;2023-02-28T11:13:48;26.53;;;15.47;;
20110;SDS011;10216;42.658;23.248;2023-02-28T11:16:15;26.43;;;15.80;;
20110;SDS011;10216;42.658;23.248;2023-02-28T11:21:06;25.90;;;15.43;;
20110;SDS011;10216;42.658;23.248;2023-02-28T11:23:33;28.13;;;16.37;;
20110;SDS011;10216;42.658;23.248;2023-02-28T11:26:01;35.30;;;20.83;;
20110;SDS011;10216;42.658;23.248;2023-02-28T11:28:30;32.07;;;16.57;;
20110;SDS011;10216;42.658;23.248;2023-02-28T11:36:07;28.50;;;16.27;;
20110;SDS011;10216;42.658;23.248;2023-02-28T11:38:34;33.27;;;21.00;;
20110;SDS011;10216;42.658;23.248;2023-02-28T11:54:54;38.00;;;17.97;;
20110;SDS011;10216;42.658;23.248;2023-02-28T12:07:58;29.50;;;18.40;;
20110;SDS011;10216;42.658;23.248;2023-02-28T12:10:26;31.40;;;18.93;;
20110;SDS011;10216;42.658;23.248;2023-02-28T12:15:48;26.83;;;15.20;;
20110;SDS011;10216;42.658;23.248;2023-02-28T12:28:19;23.37;;;13.40;;
20110;SDS011;10216;42.658;23.248;2023-02-28T12:30:52;20.00;;;12.60;;
20110;SDS011;10216;42.658;23.248;2023-02-28T12:33:20;21.87;;;12.87;;
20110;SDS011;10216;42.658;23.248;2023-02-28T12:35:57;21.47;;;12.67;;
20110;SDS011;10216;42.658;23.248;2023-02-28T12:38:23;20.13;;;11.63;;
20110;SDS011;10216;42.658;23.248;2023-02-28T12:40:52;17.57;;;12.10;;
20110;SDS011;10216;42.658;23.248;2023-02-28T12:43:19;25.87;;;12.60;;
20110;SDS011;10216;42.658;23.248;2023-02-28T12:48:13;28.17;;;13.87;;
20110;SDS011;10216;42.658;23.248;2023-02-28T12:50:40;25.13;;;14.37;;
20110;SDS011;10216;42.658;23.248;2023-02-28T13:00:53;24.93;;;16.13;;
20110;SDS011;10216;42.658;23.248;2023-02-28T13:13:56;30.57;;;17.53;;
20110;SDS011;10216;42.658;23.248;2023-02-28T13:16:21;27.30;;;16.60;;
20110;SDS011;10216;42.658;23.248;2023-02-28T13:18:47;26.03;;;15.60;;
20110;SDS011;10216;42.658;23.248;2023-02-28T13:21:41;22.10;;;14.47;;
20110;SDS011;10216;42.658;23.248;2023-02-28T13:24:02;25.83;;;15.27;;
20110;SDS011;10216;42.658;23.248;2023-02-28T13:29:21;28.27;;;17.50;;
20110;SDS011;10216;42.658;23.248;2023-02-28T13:32:31;32.20;;;19.83;;
20110;SDS011;10216;42.658;23.248;2023-02-28T13:39:45;32.83;;;18.93;;
20110;SDS011;10216;42.658;23.248;2023-02-28T13:47:24;29.33;;;16.80;;
20110;SDS011;10216;42.658;23.248;2023-02-28T13:49:52;22.03;;;11.87;;
20110;SDS011;10216;42.658;23.248;2023-02-28T13:52:19;23.83;;;12.87;;
20110;SDS011;10216;42.658;23.248;2023-02-28T14:05:04;20.77;;;13.93;;
20110;SDS011;10216;42.658;23.248;2023-02-28T14:07:36;20.23;;;12.43;;
20110;SDS011;10216;42.658;23.248;2023-02-28T14:10:04;23.23;;;12.50;;
20110;SDS011;10216;42.658;23.248;2023-02-28T14:17:52;23.40;;;12.40;;
20110;SDS011;10216;42.658;23.248;2023-02-28T14:20:18;24.70;;;13.43;;
20110;SDS011;10216;42.658;23.248;2023-02-28T14:22:57;25.77;;;12.47;;
20110;SDS011;10216;42.658;23.248;2023-02-28T14:25:33;24.37;;;12.63;;
20110;SDS011;10216;42.658;23.248;2023-02-28T14:28:11;25.57;;;13.77;;
20110;SDS011;10216;42.658;23.248;2023-02-28T14:33:23;19.87;;;10.87;;
20110;SDS011;10216;42.658;23.248;2023-02-28T14:38:27;22.17;;;13.37;;
20110;SDS011;10216;42.658;23.248;2023-02-28T14:40:54;28.73;;;12.43;;
20110;SDS011;10216;42.658;23.248;2023-02-28T14:43:24;25.40;;;12.10;;
20110;SDS011;10216;42.658;23.248;2023-02-28T14:45:50;23.77;;;13.13;;
20110;SDS011;10216;42.658;23.248;2023-02-28T14:48:16;25.00;;;11.77;;
20110;SDS011;10216;42.658;23.248;2023-02-28T14:50:47;20.70;;;11.63;;
20110;SDS011;10216;42.658;23.248;2023-02-28T14:53:15;28.27;;;19.27;;
20110;SDS011;10216;42.658;23.248;2023-02-28T14:55:44;28.53;;;13.67;;
20110;SDS011;10216;42.658;23.248;2023-02-28T14:58:22;27.33;;;14.07;;
20110;SDS011;10216;42.658;23.248;2023-02-28T15:00:48;21.67;;;12.87;;
20110;SDS011;10216;42.658;23.248;2023-02-28T15:03:18;21.57;;;12.13;;
20110;SDS011;10216;42.658;23.248;2023-02-28T15:05:51;23.83;;;20.53;;
20110;SDS011;10216;42.658;23.248;2023-02-28T15:08:16;21.00;;;13.10;;
20110;SDS011;10216;42.658;23.248;2023-02-28T15:10:49;21.17;;;14.50;;
20110;SDS011;10216;42.658;23.248;2023-02-28T15:13:15;26.13;;;13.57;;
20110;SDS011;10216;42.658;23.248;2023-02-28T15:15:46;24.13;;;13.07;;
20110;SDS011;10216;42.658;23.248;2023-02-28T15:18:17;25.17;;;13.37;;
20110;SDS011;10216;42.658;23.248;2023-02-28T15:20:45;22.07;;;13.03;;
20110;SDS011;10216;42.658;23.248;2023-02-28T15:23:11;23.20;;;13.77;;
20110;SDS011;10216;42.658;23.248;2023-02-28T15:25:37;29.87;;;15.00;;
20110;SDS011;10216;42.658;23.248;2023-02-28T15:28:02;27.33;;;15.27;;
20110;SDS011;10216;42.658;23.248;2023-02-28T15:30:28;23.27;;;12.33;;
20110;SDS011;10216;42.658;23.248;2023-02-28T15:35:38;25.50;;;13.23;;
20110;SDS011;10216;42.658;23.248;2023-02-28T15:38:13;25.20;;;15.07;;
20110;SDS011;10216;42.658;23.248;2023-02-28T15:40:45;27.73;;;15.07;;
20110;SDS011;10216;42.658;23.248;2023-02-28T15:43:29;35.93;;;16.37;;
20110;SDS011;10216;42.658;23.248;2023-02-28T15:46:06;26.10;;;15.80;;
20110;SDS011;10216;42.658;23.248;2023-02-28T15:51:46;35.00;;;17.00;;
20110;SDS011;10216;42.658;23.248;2023-02-28T15:54:05;30.60;;;18.73;;
20110;SDS011;10216;42.658;23.248;2023-02-28T15:56:33;24.47;;;13.80;;
20110;SDS011;10216;42.658;23.248;2023-02-28T15:58:59;36.53;;;22.40;;
20110;SDS011;10216;42.658;23.248;2023-02-28T16:01:27;26.93;;;15.17;;
20110;SDS011;10216;42.658;23.248;2023-02-28T16:04:01;27.97;;;14.20;;
20110;SDS011;10216;42.658;23.248;2023-02-28T16:09:01;29.40;;;16.97;;
20110;SDS011;10216;42.658;23.248;2023-02-28T16:11:26;22.67;;;13.43;;
20110;SDS011;10216;42.658;23.248;2023-02-28T16:13:51;23.20;;;15.30;;
20110;SDS011;10216;42.658;23.248;2023-02-28T16:16:19;18.47;;;13.90;;
20110;SDS011;10216;42.658;23.248;2023-02-28T16:18:45;25.80;;;18.60;;
20110;SDS011;10216;42.658;23.248;2023-02-28T16:21:10;20.73;;;14.43;;
20110;SDS011;10216;42.658;23.248;2023-02-28T16:23:35;22.93;;;14.90;;
20110;SDS011;10216;42.658;23.248;2023-02-28T16:26:02;27.90;;;20.17;;
20110;SDS011;10216;42.658;23.248;2023-02-28T16:28:29;20.50;;;14.80;;
20110;SDS011;10216;42.658;23.248;2023-02-28T16:30:57;21.87;;;19.53;;
20110;SDS011;10216;42.658;23.248;2023-02-28T16:33:22;20.07;;;13.43;;
20110;SDS011;10216;42.658;23.248;2023-02-28T16:35:48;13.67;;;11.57;;